Carlsbad, NM

12:19 AM MDT on July 30, 2015 (GMT -0600)
KNMCARLS3 | | Change Station
CLOSE
Current Station
Personal Weather Station
Location: Carlsbad, NM
Elevation: 3158 ft
Nearby Weather Stations

Elev 3158 ft 32.43 °N, 104.25 °W | Updated 9 seconds ago

Clear
Clear
77.3 °F
Feels Like 79 °F
N
0.0
Wind Variable Wind from North
Gusts 0.0 mph

Today
High -- | Low -- °F
--% Chance of Precip.
Yesterday
High -- | Low -- °F
Precip. -- in
6:10 AM 7:56 PM
Waxing Gibbous, 98% visible
Pressure 29.94 in
Visibility 10.0 miles
Clouds Few 10000 ft
Heat Index 79 °F
Dew Point 66 °F
Humidity 69%
Rainfall 0.00 in
Snow Depth Not available.
UV 0 out of 12
Pollen 4.50 out of 12
Air Quality Not available.
Flu Activity Not available.
METAR KCNM 300553Z AUTO 04006KT 10SM FEW100 25/17 A3012 RMK AO2 SLP138 T02500167 10339 20244 51018

More Conditions Fewer Conditions

Pressure 29.94 in
Visibility 10.0 miles
Clouds Few 10000 ft
Heat Index 79 °F
Dew Point 66 °F
Humidity 69%
Rainfall 0.00 in
Snow Depth Not available.
UV 0 out of 12
Pollen 4.50 out of 12
Air Quality Not available.
Flu Activity Not available.
METAR KCNM 300553Z AUTO 04006KT 10SM FEW100 25/17 A3012 RMK AO2 SLP138 T02500167 10339 20244 51018

More Conditions Fewer Conditions

10-Day Weather Forecast

×

Almanac

Astronomy

Jul. 30, 2015 Rise Set
Actual Time
Civil Twilight
Nautical Twilight
Astronomical Twilight
Moon
Length of Visible Light
Length of Day
Tomorrow will be .
, % of the Moon is Illuminated

Today's Extremes

State Highs State Lows

Community

WunderPhotos

Upload Photos

1,842,312 photos uploaded!

WunderBlogs® & News

Nearby

Air Quality

  Air Quality AQ Index Pollutant
Not available.

Snow Depth

Station Depth Elevation

Earthquake Activity

City Distance Mag. Time & Date
Minimum magnitude displayed is 2.5.

Coastal Water Temperatures

Place Temperature

Stations

Nearby Weather Stations

Station Location Temp. Windchill Dew Point Humidity Wind Precip. Elev Updated Type